Time;durP1;ratioP1;P1;durP2;ratioP2;P2;SDS_P1;SDS_P2;PMS_P1;PMS_P2;Temp;Humidity;BMP_temperature;BMP_pressure;BME280_temperature;BME280_humidity;BME280_pressure;Samples;Min_cycle;Max_cycle;Signal;HPM_P1;HPM_P2
2022/05/09 00:02:09;;;;;;;8.30;2.72;;;;;;;5.84;96.42;102944.81;5032129;28;20032;-72
2022/05/09 00:04:34;;;;;;;7.47;3.53;;;;;;;5.83;95.70;102940.41;5065830;28;21261;-72
2022/05/09 00:07:00;;;;;;;4.10;2.15;;;;;;;5.83;96.06;102942.19;5061271;28;20028;-72
2022/05/09 00:09:25;;;;;;;8.45;3.10;;;;;;;5.83;96.33;102950.94;5066273;28;20039;-73
2022/05/09 00:11:51;;;;;;;5.72;2.80;;;;;;;5.81;96.47;102944.81;5066861;28;20039;-72
2022/05/09 00:14:17;;;;;;;5.38;2.47;;;;;;;5.81;95.50;102939.53;5067839;28;20033;-73
2022/05/09 00:16:43;;;;;;;7.55;2.60;;;;;;;5.80;96.52;102932.53;5043596;28;20387;-74
2022/05/09 00:19:10;;;;;;;7.85;3.17;;;;;;;5.81;95.82;102936.91;5060404;28;20056;-72
2022/05/09 00:21:38;;;;;;;8.98;3.42;;;;;;;5.81;95.77;102931.66;5066377;28;20032;-73
2022/05/09 00:24:05;;;;;;;6.63;3.28;;;;;;;5.81;96.82;102926.41;5064620;28;20093;-73
2022/05/09 00:26:31;;;;;;;14.77;3.15;;;;;;;5.84;96.06;102929.03;5059965;28;20117;-72
2022/05/09 00:29:02;;;;;;;10.85;3.30;;;;;;;5.83;96.66;102922.03;5067582;28;20040;-72
2022/05/09 00:31:27;;;;;;;8.80;3.35;;;;;;;5.83;97.59;102932.53;5066590;28;20063;-72
2022/05/09 00:33:53;;;;;;;9.10;3.20;;;;;;;5.81;97.28;102923.78;5076820;28;20048;-72
2022/05/09 00:36:18;;;;;;;6.15;2.92;;;;;;;5.78;96.72;102922.88;5062827;28;20097;-73
2022/05/09 00:38:44;;;;;;;5.55;3.20;;;;;;;5.77;97.18;102915.84;5066876;28;20044;-73
2022/05/09 00:41:54;;;;;;;7.55;3.50;;;;;;;5.76;97.92;102922.84;5062493;28;20051;-73
2022/05/09 00:44:26;;;;;;;7.85;3.28;;;;;;;5.75;98.42;102918.47;5057365;28;21491;-73
2022/05/09 00:46:54;;;;;;;7.25;3.05;;;;;;;5.75;98.51;102918.47;5063314;28;20044;-73
2022/05/09 00:49:47;;;;;;;5.22;2.92;;;;;;;5.75;98.66;102918.47;5067008;28;20035;-73
2022/05/09 00:52:18;;;;;;;4.90;2.75;;;;;;;5.74;98.71;102916.69;5068809;28;20032;-73
2022/05/09 00:54:50;;;;;;;8.27;2.70;;;;;;;5.73;98.96;102914.94;5067866;28;20039;-73
2022/05/09 00:57:25;;;;;;;5.53;2.97;;;;;;;5.72;98.95;102918.41;5077502;28;20036;-73
2022/05/09 00:59:56;;;;;;;6.03;2.67;;;;;;;5.70;98.75;102914.91;5063780;28;20646;-73
2022/05/09 01:02:22;;;;;;;8.07;2.88;;;;;;;5.67;98.93;102915.75;5064046;28;20379;-73
2022/05/09 01:04:58;;;;;;;5.50;2.50;;;;;;;5.68;99.90;102908.75;5071525;28;20077;-72
2022/05/09 01:07:24;;;;;;;6.03;2.80;;;;;;;5.67;99.83;102904.38;5081600;28;20484;-73
2022/05/09 01:09:50;;;;;;;8.65;3.40;;;;;;;5.68;99.91;102912.25;5083513;28;20246;-72
2022/05/09 01:12:20;;;;;;;8.93;2.97;;;;;;;5.68;100.00;102908.75;5054331;28;20487;-72
2022/05/09 01:14:45;;;;;;;9.45;3.25;;;;;;;5.65;100.00;102911.34;5067044;28;20040;-72
2022/05/09 01:17:11;;;;;;;7.35;2.75;;;;;;;5.64;99.53;102906.97;5069906;28;20136;-72
2022/05/09 01:19:40;;;;;;;7.10;2.90;;;;;;;5.64;100.00;102902.59;5066023;28;20135;-72
2022/05/09 01:22:30;;;;;;;7.82;2.88;;;;;;;5.63;100.00;102898.22;5064030;28;21788;-72
2022/05/09 01:25:03;;;;;;;11.07;3.05;;;;;;;5.63;99.60;102890.34;5064582;28;20489;-72
2022/05/09 01:27:30;;;;;;;4.35;2.65;;;;;;;5.61;99.28;102888.56;5069024;28;20046;-73
2022/05/09 01:30:02;;;;;;;4.13;2.38;;;;;;;5.59;100.00;102883.28;5070868;28;20124;-72
2022/05/09 01:32:37;;;;;;;10.15;3.33;;;;;;;5.58;99.96;102895.53;5068330;28;20050;-72
2022/05/09 01:35:08;;;;;;;8.10;2.50;;;;;;;5.56;99.91;102888.53;5068783;28;20940;-73
2022/05/09 01:37:35;;;;;;;10.43;3.72;;;;;;;5.55;100.00;102894.63;5068858;28;20040;-72
2022/05/09 01:40:01;;;;;;;8.88;2.53;;;;;;;5.56;100.00;102885.91;5070637;28;20044;-73
2022/05/09 01:42:27;;;;;;;6.28;2.88;;;;;;;5.57;100.00;102895.53;5063033;28;20475;-73
2022/05/09 01:44:52;;;;;;;6.55;2.92;;;;;;;5.56;100.00;102881.50;5069027;28;20040;-73
2022/05/09 01:50:03;;;;;;;6.70;2.70;;;;;;;5.55;100.00;102890.25;5073122;28;20086;-73
2022/05/09 01:52:28;;;;;;;6.78;3.05;;;;;;;5.55;100.00;102890.25;5103784;28;20036;-77
2022/05/09 01:54:54;;;;;;;6.78;2.83;;;;;;;5.54;100.00;102884.97;5106799;28;20054;-74
2022/05/09 01:57:20;;;;;;;6.35;2.70;;;;;;;5.54;100.00;102880.63;5080316;28;20032;-72
2022/05/09 01:59:46;;;;;;;7.07;2.78;;;;;;;5.55;100.00;102889.38;5070256;28;20063;-72
2022/05/09 02:02:17;;;;;;;15.25;3.13;;;;;;;5.53;100.00;102881.50;5061869;28;20030;-74
2022/05/09 02:04:43;;;;;;;5.57;3.08;;;;;;;5.52;100.00;102885.00;5109812;28;20016;-77
2022/05/09 02:07:10;;;;;;;10.63;3.13;;;;;;;5.50;100.00;102885.84;5101281;28;20024;-76
2022/05/09 02:09:38;;;;;;;8.50;2.90;;;;;;;5.47;100.00;102878.81;5072565;28;20039;-73
2022/05/09 02:12:05;;;;;;;4.47;2.50;;;;;;;5.48;100.00;102882.31;5075542;28;20027;-73
2022/05/09 02:14:30;;;;;;;6.00;2.67;;;;;;;5.48;100.00;102885.81;5071437;28;20056;-73
2022/05/09 02:16:56;;;;;;;11.23;3.10;;;;;;;5.47;100.00;102886.69;5075376;28;20036;-73
2022/05/09 02:19:21;;;;;;;4.63;2.72;;;;;;;5.48;100.00;102882.31;5067257;28;20032;-73
2022/05/09 02:21:47;;;;;;;6.20;2.33;;;;;;;5.46;100.00;102884.94;5068088;28;20036;-73
2022/05/09 02:24:12;;;;;;;5.25;2.55;;;;;;;5.43;100.00;102882.25;5072244;28;20047;-73
2022/05/09 02:26:38;;;;;;;5.20;2.83;;;;;;;5.40;100.00;102883.13;5072131;28;20131;-73
2022/05/09 02:29:04;;;;;;;4.57;2.63;;;;;;;5.36;100.00;102883.97;5054012;28;20171;-73
2022/05/09 02:31:30;;;;;;;5.15;2.42;;;;;;;5.33;100.00;102883.06;5080034;28;20068;-72
2022/05/09 02:33:56;;;;;;;5.53;2.53;;;;;;;5.29;100.00;102876.91;5070377;28;20052;-74
2022/05/09 02:36:22;;;;;;;6.07;2.83;;;;;;;5.26;100.00;102867.25;5074026;28;20379;-73
2022/05/09 02:38:47;;;;;;;6.38;2.78;;;;;;;5.26;100.00;102869.88;5082517;28;20121;-74
2022/05/09 02:41:13;;;;;;;6.53;2.92;;;;;;;5.22;100.00;102875.09;5103707;28;20020;-75
2022/05/09 02:43:39;;;;;;;5.22;2.80;;;;;;;5.22;100.00;102872.47;5071556;28;20123;-74
2022/05/09 02:46:04;;;;;;;8.05;3.35;;;;;;;5.22;100.00;102875.94;5081252;28;20032;-76
2022/05/09 02:48:31;;;;;;;10.35;3.00;;;;;;;5.22;100.00;102869.84;5085748;28;20028;-73
2022/05/09 02:50:57;;;;;;;5.22;2.38;;;;;;;5.23;100.00;102874.22;5073145;28;20024;-74
2022/05/09 02:53:22;;;;;;;6.32;3.00;;;;;;;5.23;100.00;102872.44;5070165;28;20039;-74
2022/05/09 02:55:48;;;;;;;7.00;2.95;;;;;;;5.23;100.00;102869.81;5073256;28;20043;-74
2022/05/09 02:58:14;;;;;;;8.40;3.28;;;;;;;5.25;100.00;102868.13;5074437;28;20388;-75
2022/05/09 03:00:39;;;;;;;8.13;3.08;;;;;;;5.26;100.00;102871.59;5068496;28;20024;-73
2022/05/09 03:05:49;;;;;;;5.05;2.90;;;;;;;5.29;100.00;102861.16;5072069;28;20454;-72
2022/05/09 03:08:17;;;;;;;8.15;2.92;;;;;;;5.30;100.00;102869.00;5072890;28;20399;-73
2022/05/09 03:10:44;;;;;;;6.95;2.80;;;;;;;5.32;100.00;102858.53;5070103;28;20032;-73
2022/05/09 03:13:15;;;;;;;8.25;2.72;;;;;;;5.34;100.00;102859.41;5066688;28;20129;-74
2022/05/09 03:15:45;;;;;;;4.78;2.92;;;;;;;5.35;100.00;102855.94;5097739;27;21257;-75
2022/05/09 03:18:12;;;;;;;6.72;2.90;;;;;;;5.34;100.00;102851.53;5073706;28;20104;-74
2022/05/09 03:20:38;;;;;;;10.05;3.38;;;;;;;5.35;100.00;102844.56;5070937;28;20039;-75
2022/05/09 03:23:05;;;;;;;6.40;2.75;;;;;;;5.36;100.00;102847.19;5071213;28;20035;-74
2022/05/09 03:25:31;;;;;;;11.75;2.92;;;;;;;5.39;100.00;102843.72;5068047;28;20039;-74
2022/05/09 03:27:57;;;;;;;7.68;3.08;;;;;;;5.39;100.00;102847.22;5072769;28;20082;-74
2022/05/09 03:30:24;;;;;;;8.32;2.95;;;;;;;5.40;100.00;102840.22;5074717;28;20024;-74
2022/05/09 03:32:50;;;;;;;10.70;3.38;;;;;;;5.42;100.00;102838.47;5068006;28;20036;-74
2022/05/09 03:35:16;;;;;;;8.65;3.58;;;;;;;5.41;100.00;102826.22;5065970;28;21295;-74
2022/05/09 03:37:44;;;;;;;7.53;3.20;;;;;;;5.41;100.00;102828.84;5063263;28;20071;-74
2022/05/09 03:40:10;;;;;;;8.38;3.53;;;;;;;5.40;100.00;102827.94;5067721;28;20062;-73
2022/05/09 03:42:36;;;;;;;8.00;3.38;;;;;;;5.41;100.00;102831.47;5069900;28;20028;-74
2022/05/09 03:45:02;;;;;;;7.32;3.47;;;;;;;5.43;100.00;102828.00;5072001;28;20574;-74
2022/05/09 03:47:29;;;;;;;8.75;3.75;;;;;;;5.43;100.00;102821.84;5070143;28;20089;-73
2022/05/09 03:49:57;;;;;;;6.13;3.67;;;;;;;5.41;100.00;102821.81;5070345;28;20043;-73
2022/05/09 03:52:23;;;;;;;9.70;3.95;;;;;;;5.41;100.00;102823.59;5072963;28;20036;-73
2022/05/09 03:54:49;;;;;;;5.63;3.50;;;;;;;5.41;100.00;102820.97;5073126;28;20032;-73
2022/05/09 03:57:15;;;;;;;12.23;3.85;;;;;;;5.41;100.00;102813.94;5072472;28;20032;-74
2022/05/09 03:59:40;;;;;;;7.47;3.58;;;;;;;5.42;100.00;102822.72;5072782;28;20672;-73
2022/05/09 04:02:06;;;;;;;6.30;3.30;;;;;;;5.41;100.00;102813.06;5071416;28;20733;-73
2022/05/09 04:04:31;;;;;;;10.20;3.90;;;;;;;5.43;100.00;102816.59;5075091;28;20552;-74
2022/05/09 04:06:57;;;;;;;9.55;3.90;;;;;;;5.41;100.00;102813.94;5072024;28;20036;-74
2022/05/09 04:09:22;;;;;;;10.20;4.63;;;;;;;5.41;100.00;102813.94;5073894;28;20584;-75
2022/05/09 04:11:50;;;;;;;9.05;3.38;;;;;;;5.41;100.00;102806.06;5074869;28;20020;-74
2022/05/09 04:14:16;;;;;;;12.35;4.03;;;;;;;5.39;100.00;102814.81;5078942;28;20012;-76
2022/05/09 04:16:50;;;;;;;10.07;4.00;;;;;;;5.37;100.00;102816.53;5095015;28;20021;-73
2022/05/09 04:19:20;;;;;;;7.55;3.78;;;;;;;5.33;100.00;102810.38;5070385;28;20044;-74
2022/05/09 04:21:46;;;;;;;8.60;3.60;;;;;;;5.30;100.00;102811.22;5072967;28;20040;-73
2022/05/09 04:24:12;;;;;;;10.38;3.53;;;;;;;5.27;100.00;102805.97;5072825;28;20036;-74
2022/05/09 04:26:38;;;;;;;8.73;3.85;;;;;;;5.25;100.00;102804.19;5069970;28;20096;-74
2022/05/09 04:29:04;;;;;;;7.30;3.90;;;;;;;5.24;100.00;102805.91;5081993;28;20110;-73
2022/05/09 04:31:30;;;;;;;12.55;4.30;;;;;;;5.23;100.00;102809.41;5072507;28;20508;-74
2022/05/09 04:33:58;;;;;;;10.07;3.88;;;;;;;5.23;100.00;102804.16;5071151;28;20067;-73
2022/05/09 04:36:25;;;;;;;9.77;4.10;;;;;;;5.24;100.00;102810.31;5073698;28;20054;-72
2022/05/09 04:38:52;;;;;;;10.63;3.67;;;;;;;5.26;100.00;102806.84;5067025;28;20059;-74
2022/05/09 04:41:19;;;;;;;9.25;3.60;;;;;;;5.27;100.00;102800.72;5072232;28;20028;-74
2022/05/09 04:43:46;;;;;;;12.13;3.63;;;;;;;5.28;100.00;102804.19;5073630;28;20025;-73
2022/05/09 04:46:14;;;;;;;10.00;3.95;;;;;;;5.30;100.00;102805.97;5072737;28;20028;-73
2022/05/09 04:48:43;;;;;;;6.75;3.42;;;;;;;5.33;100.00;102799.88;5071942;28;20051;-74
2022/05/09 04:51:09;;;;;;;7.50;3.03;;;;;;;5.36;100.00;102788.50;5071661;28;20079;-73
2022/05/09 04:53:35;;;;;;;9.68;4.00;;;;;;;5.37;100.00;102790.25;5070902;28;20052;-73
2022/05/09 04:56:23;;;;;;;6.20;3.25;;;;;;;5.39;100.00;102788.56;5084195;28;20404;-74
2022/05/09 04:58:48;;;;;;;5.97;3.83;;;;;;;5.41;100.00;102781.56;5103239;28;20045;-75
2022/05/09 05:01:14;;;;;;;6.07;3.55;;;;;;;5.43;100.00;102777.19;5071590;28;20032;-74
2022/05/09 05:03:39;;;;;;;7.50;3.38;;;;;;;5.47;100.00;102780.72;5074100;28;20369;-73
2022/05/09 05:06:05;;;;;;;8.07;3.30;;;;;;;5.52;100.00;102779.91;5073915;28;20032;-71
2022/05/09 05:08:33;;;;;;;10.48;3.72;;;;;;;5.58;100.00;102779.91;5091242;28;20024;-76
2022/05/09 05:11:00;;;;;;;9.00;3.25;;;;;;;5.66;100.00;102779.09;5089387;28;20031;-73
2022/05/09 05:13:27;;;;;;;7.05;3.75;;;;;;;5.74;100.00;102779.13;5066567;28;20032;-73
2022/05/09 05:15:53;;;;;;;10.43;3.83;;;;;;;5.81;100.00;102776.56;5065996;28;20063;-73
2022/05/09 05:18:24;;;;;;;8.77;3.53;;;;;;;5.87;100.00;102778.31;5065370;28;20820;-73
2022/05/09 05:20:50;;;;;;;7.85;3.95;;;;;;;5.94;100.00;102771.38;5061570;28;20036;-73
2022/05/09 05:23:16;;;;;;;9.27;3.70;;;;;;;6.03;100.00;102775.78;5061449;28;20032;-74
2022/05/09 05:25:45;;;;;;;7.32;3.58;;;;;;;6.10;100.00;102770.59;5065292;28;20060;-73
2022/05/09 05:28:11;;;;;;;7.60;3.75;;;;;;;6.21;100.00;102764.50;5062597;28;20036;-73
2022/05/09 05:30:37;;;;;;;7.35;4.03;;;;;;;6.31;100.00;102768.06;5065835;28;20033;-73
2022/05/09 05:33:04;;;;;;;8.55;3.70;;;;;;;6.43;100.00;102760.16;5069073;28;20028;-72
2022/05/09 05:35:30;;;;;;;7.22;3.97;;;;;;;6.57;100.00;102765.47;5068170;28;20087;-72
2022/05/09 05:37:55;;;;;;;9.38;4.32;;;;;;;6.70;100.00;102769.00;5070343;28;20150;-72
2022/05/09 05:40:21;;;;;;;7.68;3.55;;;;;;;6.85;100.00;102765.53;5068500;28;20761;-72
2022/05/09 05:42:50;;;;;;;13.23;4.10;;;;;;;7.01;100.00;102769.03;5067618;28;20029;-72
2022/05/09 05:45:17;;;;;;;6.35;3.60;;;;;;;7.25;100.00;102763.78;5068244;28;20582;-73
2022/05/09 05:47:43;;;;;;;10.35;3.72;;;;;;;7.53;100.00;102766.38;5068767;28;20871;-73
2022/05/09 05:50:11;;;;;;;9.10;4.40;;;;;;;7.75;100.00;102770.69;5077968;28;20039;-72
2022/05/09 05:52:36;;;;;;;7.43;3.33;;;;;;;7.95;100.00;102763.63;5063377;28;20139;-72
2022/05/09 05:55:02;;;;;;;11.52;4.50;;;;;;;8.15;100.00;102763.53;5068354;28;20048;-72
2022/05/09 05:57:33;;;;;;;7.22;3.90;;;;;;;8.34;100.00;102760.81;5066471;28;20036;-73
2022/05/09 06:00:04;;;;;;;6.55;3.80;;;;;;;8.52;100.00;102767.78;5065709;28;20125;-72
2022/05/09 06:02:30;;;;;;;6.63;3.53;;;;;;;8.67;100.00;102759.75;5044796;28;20510;-72
2022/05/09 06:04:56;;;;;;;10.07;3.85;;;;;;;8.84;100.00;102761.41;5066150;28;20032;-72
2022/05/09 06:07:22;;;;;;;7.75;3.33;;;;;;;9.01;99.42;102765.69;5064392;28;20593;-72
2022/05/09 06:09:49;;;;;;;6.43;2.97;;;;;;;9.13;99.01;102759.41;5063003;28;20039;-73
2022/05/09 06:12:16;;;;;;;4.45;3.00;;;;;;;9.26;98.70;102747.84;5062778;28;20929;-73
2022/05/09 06:14:42;;;;;;;9.63;3.90;;;;;;;9.38;97.74;102750.38;5069923;28;20400;-72
2022/05/09 06:17:09;;;;;;;8.50;3.90;;;;;;;9.54;97.39;102751.97;5070038;28;20032;-72
2022/05/09 06:19:35;;;;;;;6.63;3.47;;;;;;;9.61;96.66;102751.91;5068295;28;20036;-72
2022/05/09 06:22:01;;;;;;;6.30;3.40;;;;;;;9.78;96.92;102757.00;5064259;28;20032;-72
2022/05/09 06:24:27;;;;;;;5.88;3.10;;;;;;;9.91;96.02;102751.56;5061354;28;20040;-77
2022/05/09 06:26:53;;;;;;;5.07;2.97;;;;;;;10.02;95.87;102759.38;5051699;28;20043;-77
2022/05/09 06:29:18;;;;;;;9.70;3.33;;;;;;;10.14;95.64;102753.91;5061091;28;20578;-81
2022/05/09 06:31:45;;;;;;;7.63;3.05;;;;;;;10.30;94.94;102753.72;5061237;28;20048;-80
2022/05/09 06:34:13;;;;;;;7.20;3.03;;;;;;;10.40;94.54;102755.34;5062350;28;20056;-78
2022/05/09 06:36:40;;;;;;;6.22;3.10;;;;;;;10.62;94.35;102757.69;5049096;28;20036;-79
2022/05/09 06:39:07;;;;;;;5.97;2.97;;;;;;;10.84;94.42;102757.38;5067079;28;20043;-78
2022/05/09 06:41:32;;;;;;;6.90;3.13;;;;;;;10.99;93.10;102759.78;5068329;28;20122;-75
2022/05/09 06:43:58;;;;;;;6.40;2.75;;;;;;;11.14;93.17;102749.81;5068167;28;20046;-76
2022/05/09 06:46:23;;;;;;;5.68;2.65;;;;;;;11.30;91.98;102747.75;5068226;28;20486;-76
2022/05/09 06:48:49;;;;;;;5.60;2.90;;;;;;;11.46;91.76;102751.00;5066030;28;20096;-74
2022/05/09 06:51:14;;;;;;;7.35;2.72;;;;;;;11.59;91.38;102737.53;5065811;28;20041;-76
2022/05/09 06:53:40;;;;;;;5.82;2.70;;;;;;;11.72;91.04;102746.94;5067814;28;20028;-74
2022/05/09 06:56:06;;;;;;;8.93;3.28;;;;;;;11.91;89.37;102747.47;5065063;28;20047;-81
2022/05/09 06:58:32;;;;;;;7.80;2.53;;;;;;;11.99;88.51;102749.09;5066401;28;20028;-74
2022/05/09 07:00:58;;;;;;;5.45;2.80;;;;;;;12.05;87.66;102752.50;5068833;28;20082;-73
2022/05/09 07:03:25;;;;;;;6.55;2.80;;;;;;;12.19;87.70;102756.66;5067146;28;20645;-74
2022/05/09 07:05:51;;;;;;;6.15;2.50;;;;;;;12.34;87.44;102755.44;5064520;28;21500;-75
2022/05/09 07:08:19;;;;;;;5.40;2.60;;;;;;;12.47;88.41;102754.25;5068160;28;20028;-84
2022/05/09 07:10:44;;;;;;;8.40;3.10;;;;;;;12.65;88.36;102754.75;5047427;28;20112;-74
2022/05/09 07:13:10;;;;;;;4.40;2.92;;;;;;;12.71;87.63;102753.72;5067935;28;20443;-73
2022/05/09 07:15:36;;;;;;;5.43;2.63;;;;;;;12.89;87.64;102757.72;5061711;28;20038;-75
2022/05/09 07:18:03;;;;;;;5.63;2.55;;;;;;;12.96;86.39;102759.31;5066719;28;20797;-75
2022/05/09 07:20:31;;;;;;;8.93;3.03;;;;;;;13.23;87.35;102759.50;5068206;28;20062;-76
2022/05/09 07:23:03;;;;;;;6.57;2.60;;;;;;;13.39;85.48;102753.78;5066321;28;20035;-74
2022/05/09 07:25:29;;;;;;;5.32;2.22;;;;;;;13.55;83.95;102751.59;5062571;28;20434;-73
2022/05/09 07:27:54;;;;;;;7.35;2.45;;;;;;;13.63;84.58;102768.25;5061414;28;20092;-74
2022/05/09 07:30:22;;;;;;;6.10;2.78;;;;;;;13.69;83.26;102754.75;5067295;28;20151;-74
2022/05/09 07:32:51;;;;;;;11.00;3.60;;;;;;;13.89;84.55;102755.97;5066350;28;20051;-74
2022/05/09 07:35:16;;;;;;;9.77;2.75;;;;;;;14.05;83.92;102755.53;5061337;28;20570;-72
2022/05/09 07:37:44;;;;;;;7.13;3.08;;;;;;;14.20;84.16;102746.19;5066969;28;20043;-72
2022/05/09 07:40:11;;;;;;;5.30;2.60;;;;;;;14.32;82.37;102753.81;5067496;28;20078;-71
2022/05/09 07:42:38;;;;;;;7.05;2.60;;;;;;;14.44;83.38;102743.69;5077750;28;20036;-72
2022/05/09 07:45:04;;;;;;;6.32;2.67;;;;;;;14.65;83.41;102750.13;5063496;28;20019;-73
2022/05/09 07:47:31;;;;;;;6.35;2.47;;;;;;;14.80;81.54;102755.00;5065009;28;20028;-73
2022/05/09 07:49:56;;;;;;;6.00;2.55;;;;;;;14.84;80.44;102750.44;5063222;28;20043;-72
2022/05/09 07:52:24;;;;;;;5.22;2.65;;;;;;;14.95;80.88;102750.06;5062943;28;20559;-72
2022/05/09 07:54:49;;;;;;;5.45;2.65;;;;;;;15.10;79.20;102742.47;5068603;28;20028;-72
2022/05/09 07:57:15;;;;;;;7.30;2.90;;;;;;;15.21;78.80;102741.16;5061906;28;20140;-72
2022/05/09 07:59:41;;;;;;;7.18;2.33;;;;;;;15.33;76.65;102739.88;5068311;28;20040;-72
2022/05/09 08:02:06;;;;;;;7.43;2.45;;;;;;;15.31;76.81;102747.03;5067957;28;20035;-72
2022/05/09 08:04:32;;;;;;;3.40;2.03;;;;;;;15.48;77.90;102750.94;5063321;28;20064;-77
2022/05/09 08:06:58;;;;;;;6.00;3.10;;;;;;;15.69;77.50;102741.25;5062052;28;20081;-73
2022/05/09 08:09:23;;;;;;;6.53;2.40;;;;;;;15.73;75.83;102742.00;5060444;28;20418;-72
2022/05/09 08:11:49;;;;;;;8.95;2.55;;;;;;;15.78;76.33;102739.16;5060028;28;20090;-71
2022/05/09 08:14:15;;;;;;;4.63;2.25;;;;;;;15.91;74.99;102740.44;5066626;28;20051;-72
2022/05/09 08:16:40;;;;;;;6.40;2.58;;;;;;;15.96;75.18;102737.66;5067325;28;20031;-72
2022/05/09 08:19:06;;;;;;;6.07;2.58;;;;;;;16.09;75.31;102733.56;5068105;28;20028;-72
2022/05/09 08:21:31;;;;;;;5.18;2.03;;;;;;;16.19;74.72;102735.88;5067119;28;20838;-72
2022/05/09 08:49:49;;;;;;;5.80;2.40;;;;;;;17.53;66.16;102730.34;5019395;27;1969731;-76
2022/05/09 08:56:22;;;;;;;5.78;2.20;;;;;;;17.70;67.76;102717.03;5047168;27;20183;-76
2022/05/09 08:58:51;;;;;;;5.35;1.98;;;;;;;17.92;68.30;102716.91;5051985;28;20163;-77
2022/05/09 09:01:22;;;;;;;3.97;2.10;;;;;;;18.11;67.87;102720.53;5025596;28;20056;-77
2022/05/09 09:04:01;;;;;;;7.55;2.25;;;;;;;18.24;67.41;102715.47;5041408;28;20082;-77
2022/05/09 09:06:37;;;;;;;5.75;2.10;;;;;;;18.37;67.18;102707.69;5041394;28;20040;-77
2022/05/09 09:09:09;;;;;;;3.45;1.95;;;;;;;18.50;67.37;102706.16;5055935;28;20047;-77
2022/05/09 09:11:55;;;;;;;4.05;1.70;;;;;;;18.66;65.31;102708.06;5054475;28;20037;-76
2022/05/09 09:14:33;;;;;;;3.47;1.85;;;;;;;18.73;68.77;102704.09;5055275;28;20037;-77
2022/05/09 09:17:37;;;;;;;4.88;1.98;;;;;;;18.80;63.61;102707.38;5052744;28;20028;-78
2022/05/09 09:20:16;;;;;;;3.75;2.13;;;;;;;18.82;63.47;102700.97;5053368;28;20091;-78
2022/05/09 09:22:54;;;;;;;4.45;1.80;;;;;;;18.91;65.63;102696.06;5086430;28;20036;-77
2022/05/09 09:25:42;;;;;;;4.20;1.60;;;;;;;18.97;66.11;102693.06;5053373;28;20044;-77
2022/05/09 09:28:17;;;;;;;4.00;1.58;;;;;;;19.04;64.53;102689.16;5054211;28;20045;-77
2022/05/09 09:30:44;;;;;;;3.95;1.60;;;;;;;19.19;66.13;102694.66;5053249;28;20092;-77
2022/05/09 09:33:13;;;;;;;6.40;2.22;;;;;;;19.22;65.17;102695.38;5068242;28;20058;-77
2022/05/09 09:35:47;;;;;;;2.58;1.38;;;;;;;19.23;61.04;102690.88;5051586;28;20498;-78
2022/05/09 09:38:19;;;;;;;1.98;1.30;;;;;;;19.29;62.51;102684.28;5051775;28;20045;-77
2022/05/09 09:40:44;;;;;;;4.30;1.40;;;;;;;19.37;61.84;102677.56;5051966;28;20521;-78
2022/05/09 09:43:10;;;;;;;2.58;1.02;;;;;;;19.48;60.81;102674.28;5049726;28;20083;-78
2022/05/09 09:45:44;;;;;;;3.25;1.50;;;;;;;19.61;59.32;102666.41;5051944;28;20064;-78
2022/05/09 09:48:09;;;;;;;3.25;1.65;;;;;;;19.71;58.57;102660.56;5051309;28;20036;-83
2022/05/09 09:50:35;;;;;;;3.58;1.60;;;;;;;19.73;57.70;102659.53;5049787;28;20024;-78
2022/05/09 09:53:02;;;;;;;3.15;1.40;;;;;;;19.68;55.96;102654.38;5038839;28;20028;-77
2022/05/09 09:55:38;;;;;;;2.45;1.02;;;;;;;19.81;53.49;102653.69;5052953;28;20085;-76
2022/05/09 09:58:25;;;;;;;3.72;1.35;;;;;;;19.82;51.63;102650.06;5035851;28;20042;-76
2022/05/09 10:01:05;;;;;;;3.97;1.70;;;;;;;19.84;51.74;102653.53;5051521;28;20044;-79
2022/05/09 10:49:01;;;;;;;4.18;1.63;;;;;;;19.38;48.88;102609.47;5035332;27;1947567;-73
2022/05/09 10:51:32;;;;;;;3.25;1.45;;;;;;;19.37;50.55;102615.81;5080886;28;20554;-73
2022/05/09 10:54:18;;;;;;;7.63;1.85;;;;;;;19.46;48.86;102609.06;5074433;28;20122;-73
2022/05/09 10:56:55;;;;;;;2.15;1.40;;;;;;;19.62;48.66;102603.69;5081783;28;20040;-69
2022/05/09 10:59:26;;;;;;;2.78;1.20;;;;;;;19.70;48.90;102602.38;5066669;28;20027;-70
2022/05/09 11:02:06;;;;;;;2.17;1.40;;;;;;;19.82;49.04;102590.94;5066651;28;20497;-70
2022/05/09 11:04:34;;;;;;;2.30;1.27;;;;;;;19.86;49.20;102603.25;5087634;28;20427;-69
2022/05/09 11:07:03;;;;;;;4.03;1.55;;;;;;;19.93;48.92;102599.25;5068486;28;20499;-72
2022/05/09 11:09:30;;;;;;;4.50;1.60;;;;;;;19.98;48.02;102600.84;5087414;28;20039;-72
2022/05/09 11:12:14;;;;;;;2.75;1.40;;;;;;;19.97;47.23;102588.34;5050167;28;20454;-84
2022/05/09 11:15:04;;;;;;;1.75;1.50;;;;;;;20.03;45.21;102591.56;5048405;28;20097;-72
2022/05/09 11:17:33;;;;;;;3.30;1.20;;;;;;;20.02;49.26;102584.47;5085963;28;20117;-71
2022/05/09 11:20:26;;;;;;;1.85;1.35;;;;;;;19.95;46.73;102575.88;5061808;28;20040;-72
2022/05/09 11:23:12;;;;;;;3.22;1.30;;;;;;;20.03;47.06;102571.88;5085051;28;20036;-71
2022/05/09 11:25:58;;;;;;;4.03;1.80;;;;;;;20.06;45.56;102567.16;5065968;28;20052;-71
2022/05/09 11:28:26;;;;;;;3.67;1.40;;;;;;;20.06;45.43;102566.31;5069610;28;20631;-71
2022/05/09 11:31:07;;;;;;;3.20;1.30;;;;;;;20.10;43.63;102572.38;5088050;28;20500;-72
2022/05/09 11:33:35;;;;;;;2.83;1.60;;;;;;;20.09;47.45;102566.13;5086803;28;20052;-72
2022/05/09 11:36:10;;;;;;;2.70;1.40;;;;;;;20.05;47.11;102565.44;5050307;28;20042;-71
2022/05/09 11:38:44;;;;;;;2.97;1.52;;;;;;;20.03;44.35;102564.69;5047398;28;20040;-71
2022/05/09 11:41:25;;;;;;;5.72;1.45;;;;;;;19.89;46.05;102554.69;5068193;28;20039;-71
2022/05/09 11:44:14;;;;;;;2.55;1.30;;;;;;;19.72;43.43;102552.13;5071485;28;20730;-79
2022/05/09 11:46:54;;;;;;;3.88;1.58;;;;;;;19.59;45.13;102547.47;5029124;28;20032;-72
2022/05/09 11:49:37;;;;;;;2.33;1.23;;;;;;;19.57;46.94;102544.00;5041325;28;20041;-72
2022/05/09 11:52:09;;;;;;;4.55;1.40;;;;;;;19.70;47.13;102543.28;5058991;28;20044;-73
2022/05/09 11:54:43;;;;;;;2.30;1.30;;;;;;;19.76;45.18;102532.16;5043274;28;20062;-73
2022/05/09 11:57:26;;;;;;;2.83;1.40;;;;;;;19.80;45.10;102541.81;5048167;28;20040;-74
2022/05/09 11:59:57;;;;;;;2.60;1.35;;;;;;;19.76;45.25;102537.53;5030974;28;21681;-73
2022/05/09 12:02:56;;;;;;;1.92;0.98;;;;;;;19.73;42.96;102540.44;5030403;28;20655;-73
2022/05/09 12:05:31;;;;;;;3.28;1.58;;;;;;;19.77;45.49;102544.69;4990037;28;20157;-72
2022/05/09 12:08:15;;;;;;;3.45;1.33;;;;;;;19.88;44.48;102542.22;5048069;28;20046;-72
2022/05/09 12:10:46;;;;;;;2.83;1.40;;;;;;;20.00;45.25;102526.38;5026699;28;20024;-72
2022/05/09 12:13:51;;;;;;;2.28;1.02;;;;;;;20.02;41.92;102533.38;5012791;28;20032;-74
2022/05/09 12:16:35;;;;;;;1.60;1.10;;;;;;;20.07;43.00;102534.00;5018765;28;20045;-78
2022/05/09 12:19:03;;;;;;;1.10;0.95;;;;;;;19.99;45.00;102530.00;5047625;28;20058;-77
2022/05/09 12:21:36;;;;;;;3.05;1.23;;;;;;;19.98;45.07;102520.22;5000399;28;20040;-77
2022/05/09 12:24:32;;;;;;;4.03;1.48;;;;;;;19.99;42.58;102516.56;5028586;28;20777;-77
2022/05/09 12:26:57;;;;;;;2.65;1.20;;;;;;;20.11;45.04;102513.16;5026671;28;20044;-77
2022/05/09 12:29:30;;;;;;;2.00;1.02;;;;;;;20.28;41.93;102511.25;5029909;28;20061;-77
2022/05/09 12:31:58;;;;;;;4.03;1.40;;;;;;;20.40;44.36;102506.97;5027247;28;20422;-76
2022/05/09 12:34:36;;;;;;;2.30;1.40;;;;;;;20.46;43.69;102501.19;5027309;28;20067;-78
2022/05/09 12:37:02;;;;;;;2.78;1.27;;;;;;;20.48;43.40;102493.91;5030058;28;20040;-77
2022/05/09 12:39:48;;;;;;;3.65;1.70;;;;;;;20.32;40.98;102491.31;5047331;28;21026;-77
2022/05/09 12:42:25;;;;;;;2.60;1.33;;;;;;;20.37;42.33;102488.34;5048088;28;20062;-78
2022/05/09 12:44:52;;;;;;;2.15;1.10;;;;;;;20.43;43.09;102478.03;5035416;28;20133;-77
2022/05/09 12:47:28;;;;;;;3.90;1.40;;;;;;;20.46;42.18;102477.00;5015381;28;20088;-77
2022/05/09 12:50:06;;;;;;;3.25;1.40;;;;;;;20.47;42.38;102479.59;5030292;28;20037;-76
2022/05/09 12:52:37;;;;;;;3.13;1.33;;;;;;;20.49;43.29;102474.13;5047950;28;20048;-77
2022/05/09 12:57:48;;;;;;;2.28;1.30;;;;;;;20.45;44.02;102460.00;5030017;28;20040;-85
2022/05/09 13:00:17;;;;;;;1.70;1.23;;;;;;;20.42;43.00;102464.72;5025155;28;20453;-78